This is the latest recevied weather packets stored in our database for station/object DB0ASF-4. If no packets are shown the sender has not sent any weather packets the latest 10 day(s).
| Time | Temp. | Humidity | Pressure | Rain* | Wind** | Luminosity | Snow |
|---|---|---|---|---|---|---|---|
| 1777799957 | 20° C | 51% | 1020 hPa | 0 mm | - | - | - |
| 1777799357 | 20° C | 53% | 1020 hPa | 0 mm | - | - | - |
| 1777798757 | 19.44° C | 55% | 1020.2 hPa | 0 mm | - | - | - |
| 1777798157 | 18.89° C | 60% | 1020.2 hPa | 0 mm | - | - | - |
| 1777797557 | 17.78° C | 63% | 1020 hPa | 0 mm | - | - | - |
| 1777796957 | 16.67° C | 66% | 1020 hPa | 0 mm | - | - | - |
| 1777796357 | 16.67° C | 68% | 1020.4 hPa | 0 mm | - | - | - |
| 1777795757 | 16.11° C | 68% | 1020.2 hPa | 0 mm | - | - | - |
| 1777795157 | 15.56° C | 68% | 1020.4 hPa | 0 mm | - | - | - |
| 1777794557 | 15.56° C | 68% | 1020.7 hPa | 0 mm | - | - | - |
| 1777793957 | 15.56° C | 66% | 1020.5 hPa | 0 mm | - | - | - |
| 1777793357 | 15.56° C | 65% | 1020.4 hPa | 0 mm | - | - | - |
| 1777792757 | 16.11° C | 63% | 1020.2 hPa | 0 mm | - | - | - |
| 1777792157 | 16.11° C | 64% | 1020.4 hPa | 0 mm | - | - | - |
| 1777791557 | 15.56° C | 65% | 1020.5 hPa | 0 mm | - | - | - |
| 1777790957 | 15° C | 67% | 1020.7 hPa | 0 mm | - | - | - |
| 1777790357 | 14.44° C | 68% | 1020.7 hPa | 0 mm | - | - | - |
| 1777789757 | 13.89° C | 71% | 1020.7 hPa | 0 mm | - | - | - |
| 1777789157 | 13.33° C | 71% | 1020.2 hPa | 0 mm | - | - | - |
| 1777788557 | 12.78° C | 72% | 1020.2 hPa | 0 mm | - | - | - |
| 1777787957 | 12.78° C | 72% | 1020 hPa | 0 mm | - | - | - |
| 1777787357 | 12.22° C | 74% | 1020.2 hPa | 0 mm | - | - | - |
| 1777786757 | 12.22° C | 74% | 1020.2 hPa | 0 mm | - | - | - |
| 1777786157 | 11.67° C | 75% | 1019.9 hPa | 0 mm | - | - | - |
| 1777785557 | 11.11° C | 76% | 1019.7 hPa | 0 mm | - | - | - |
* Rain latest hour (hover to see other rain measurements)
** Current wind speed in m/s (hover to see current wind gust speed)